Flight Track Log - Related Links

Times and Time Zones

All times are in EDT time to prevent confusion due to time zone crossing. See the SWA2238 flight status page for this flight to view local times or setup timezone preferences in your user account.

Time Position Orientation Groundspeed Altitude Reporting Facility
EDT Latitude Longitude Course Direction KTS MPH feet Rate Location/Type
05:48PM 28.0000 -82.5333 North 154 177 900  Level Tampa TRACON
05:49PM 28.0167 -82.5333 360° North 158 182 1,400 2,000 Climbing Tampa TRACON
05:50PM 28.0667 -82.5333 360° North 241 277 3,500 2,492 Climbing Tampa TRACON
05:53PM 28.3331 -82.5789 351° North 303 349 12,200 2,746 Climbing Jacksonville Center
05:54PM 28.5959 -82.5833 North  Level FlightAware Approximate
05:54PM 28.4375 -82.5856 357° North 337 388 15,400  Level Jacksonville Center
05:55PM 28.5397 -82.5878 359° North 359 413 18,300 2,700 Climbing Jacksonville Center
05:56PM 28.6483 -82.5897 359° North 373 429 20,800 2,400 Climbing Jacksonville Center
05:57PM 28.7569 -82.5989 356° North 383 441 23,100 2,150 Climbing Jacksonville Center
05:58PM 28.8717 -82.6153 353° North 395 455 25,100 1,450 Climbing Jacksonville Center
05:59PM 28.9886 -82.6339 352° North 409 471 26,000 450 Climbing Jacksonville Center
06:00PM 29.1078 -82.6503 353° North 420 483 26,000 700 Level Jacksonville Center
06:01PM 29.2267 -82.6667 353° North 425 489 27,400 1,450 Climbing Jacksonville Center
06:02PM 29.3478 -82.6831 353° North 430 495 28,900 1,750 Climbing Jacksonville Center
06:03PM 29.4708 -82.6922 356° North 430 495 30,900 2,050 Climbing Jacksonville Center
06:04PM 29.5961 -82.6942 359° North 440 506 33,000 1,900 Climbing Jacksonville Center
06:05PM 29.7172 -82.6942 360° North 440 506 34,700 1,500 Climbing Jacksonville Center
06:06PM 29.8383 -82.6939 360° North 433 498 36,000 1,250 Climbing Jacksonville Center
06:07PM 29.9594 -82.6911 North 433 498 37,200 1,250 Climbing Jacksonville Center
06:08PM 30.0908 -82.6886 North 433 498 38,500 900 Climbing Jacksonville Center
06:09PM 30.2100 -82.6858 North 433 498 39,000 250 Climbing Jacksonville Center
06:10PM 30.3269 -82.6856 360° North 422 486 39,000  Level Jacksonville Center
06:11PM 30.4439 -82.6853 360° North 417 480 39,000  Level Jacksonville Center
06:12PM 30.5378 -82.6778 North 417 480 39,000  Level Jacksonville Center
06:13PM 30.6775 -82.6583 North 422 486 39,000  Level Jacksonville Center
06:14PM 30.7967 -82.6556 North 422 486 39,000  Level Jacksonville Center
06:15PM 30.9053 -82.6794 349° North 411 473 39,000  Level Jacksonville Center
06:16PM 31.0181 -82.6961 353° North 405 466 39,000  Level Jacksonville Center
06:17PM 31.1369 -82.6767 North 410 472 39,000  Level Jacksonville Center
06:18PM 31.2519 -82.6617 North 410 472 39,000  Level Jacksonville Center
06:19PM 31.3644 -82.6517 North 410 472 39,000  Level Jacksonville Center
06:21PM 31.5778 -82.6275 North 420 483 39,000  Level Atlanta Center
06:22PM 31.6944 -82.6136 North 422 486 39,000  Level Atlanta Center
06:23PM 31.8069 -82.5994 North 422 486 39,000  Level Atlanta Center
06:24PM 31.9239 -82.5853 North 422 486 39,000  Level Atlanta Center
06:25PM 32.0406 -82.5711 North 422 486 39,000  Level Atlanta Center
06:26PM 32.1531 -82.5594 North 422 486 39,000  Level Atlanta Center
06:27PM 32.2761 -82.5453 North 415 478 39,000  Level Atlanta Center
06:28PM 32.3886 -82.5311 North 403 464 39,000  Level Atlanta Center
06:29PM 32.5011 -82.5167 North 403 464 39,000  Level Atlanta Center
06:30PM 32.6117 -82.5025 North 403 464 39,000  Level Atlanta Center
06:31PM 32.7261 -82.4931 North 403 464 39,000  Level Atlanta Center
06:32PM 32.8367 -82.4789 North 403 464 39,000  Level Atlanta Center
06:33PM 32.9514 -82.4669 North 403 464 39,000  Level Atlanta Center
06:34PM 33.0617 -82.4525 North 403 464 39,000  Level Atlanta Center
06:35PM 33.1722 -82.4381 North 403 464 39,000  Level Atlanta Center
06:36PM 33.2722 -82.4264 North 403 464 39,000  Level Atlanta Center
06:37PM 33.3764 -82.4144 North 391 450 39,000  Level Atlanta Center
06:38PM 33.4889 -82.3997 North 391 450 39,000  Level Atlanta Center
06:39PM 33.5975 -82.3878 North 391 450 39,000  Level Atlanta Center
06:40PM 33.7036 -82.3733 North 383 441 39,000  Level Atlanta Center
06:41PM 33.8142 -82.3586 North 389 448 39,000  Level Atlanta Center
06:42PM 33.9225 -82.3464 North 397 457 39,000  Level Atlanta Center
06:43PM 34.0453 -82.3289 North 397 457 39,000  Level Atlanta Center
06:44PM 34.1600 -82.3167 North 399 459 39,000  Level Atlanta Center
06:45PM 34.2703 -82.3019 North 399 459 39,000  Level Atlanta Center
06:46PM 34.3786 -82.2894 North 404 465 39,000  Level Atlanta Center
06:47PM 34.4911 -82.2772 North 404 465 39,000  Level Atlanta Center
06:48PM 34.5975 -82.2647 North 399 459 39,000  Level Atlanta Center
06:49PM 34.7078 -82.2525 North 399 459 39,000  Level Atlanta Center
06:50PM 34.8183 -82.2347 North 394 453 39,000  Level Atlanta Center
06:51PM 34.9036 -82.2253 North 394 453 39,000  Level Atlanta Center
06:52PM 35.0225 -82.2100 North 389 448 39,000  Level Atlanta Center
06:53PM 35.1328 -82.1975 North 389 448 39,000  Level Atlanta Center
06:54PM 35.2411 -82.1850 North 389 448 39,000  Level Atlanta Center
06:55PM 35.3472 -82.1697 North 384 442 39,000  Level Atlanta Center
06:56PM 35.4556 -82.1572 North 384 442 39,000  Level Atlanta Center
06:57PM 35.5617 -82.1444 North 384 442 39,000  Level Atlanta Center
06:58PM 35.6722 -82.1292 North 389 448 39,000  Level Atlanta Center
06:59PM 35.7825 -82.1164 North 389 448 39,000  Level Atlanta Center
07:00PM 35.9053 -82.1006 North 389 448 39,000  Level Atlanta Center
07:01PM 36.0178 -82.0850 North 394 453 39,000  Level Atlanta Center
07:02PM 36.1322 -82.0669 North 400 460 39,000  Level Atlanta Center
07:03PM 36.2383 -82.0567 North 400 460 39,000  Level Atlanta Center
07:04PM 36.3339 -82.0389 North 390 449 39,000  Level Atlanta Center
07:05PM 36.4422 -82.0258 North 390 449 39,000  Level Atlanta Center
07:06PM 36.6256 -82.0011 North 392 451 39,000  Level Indianapolis Center
07:08PM 36.7844 -81.9442 16° North 400 460 39,000  Level Indianapolis Center
07:09PM 36.8900 -81.8983 19° North 400 460 39,000  Level Indianapolis Center
07:10PM 36.9947 -81.8536 19° North 400 460 39,000  Level Indianapolis Center
07:11PM 37.0975 -81.8089 19° North 397 457 39,000  Level Indianapolis Center
07:12PM 37.2019 -81.7644 19° North 396 456 39,000  Level Indianapolis Center
07:13PM 37.3067 -81.7172 20° North 397 457 39,000  Level Indianapolis Center
07:14PM 37.4111 -81.6719 19° North 397 457 39,000  Level Indianapolis Center
07:15PM 37.5167 -81.6256 19° North 397 457 39,000  Level Indianapolis Center
07:16PM 37.6217 -81.5808 19° North 397 457 39,000  Level Indianapolis Center
07:17PM 37.7406 -81.5281 19° North 393 452 39,000  Level Indianapolis Center
07:18PM 37.8350 -81.4869 19° North 392 451 39,000  Level Indianapolis Center
07:19PM 37.9383 -81.4406 19° North 392 451 39,000  Level Indianapolis Center
07:20PM 38.0439 -81.3939 19° North 395 455 39,000  Level Indianapolis Center
07:21PM 38.1497 -81.3475 19° North 399 459 39,000  Level Indianapolis Center
07:22PM 38.2536 -81.3006 20° North 399 459 39,000  Level Indianapolis Center
07:23PM 38.3589 -81.2533 19° North 399 459 39,000  Level Indianapolis Center
07:24PM 38.4839 -81.1958 20° North 400 460 39,000  Level Indianapolis Center
07:25PM 38.5881 -81.1494 19° North 400 460 39,000  Level Indianapolis Center
07:26PM 38.6925 -81.1017 20° North 400 460 39,000  Level Indianapolis Center
07:27PM 38.7964 -81.0539 20° North 400 460 39,000  Level Indianapolis Center
07:28PM 38.8997 -81.0081 19° North 400 460 39,000  Level Indianapolis Center
07:29PM 39.0044 -80.9597 20° North 400 460 39,000  Level Indianapolis Center
07:30PM 39.1092 -80.9125 19° North 400 460 39,000  Level Indianapolis Center
07:31PM 39.2153 -80.8642 19° North 400 460 39,000  Level Indianapolis Center
07:32PM 39.3206 -80.8150 20° North 400 460 39,000 -344 Level Indianapolis Center
07:33PM 39.4272 -80.7658 20° North 402 463 38,300 -871 Descending Indianapolis Center
07:34PM 39.5461 -80.7111 20° North 402 463 37,200 -629 Descending Cleveland Center
07:35PM 39.6483 -80.6636 20° North 394 453 37,000 -98 Descending Cleveland Center
07:36PM 39.7519 -80.6161 19° North 395 455 37,000  Level Cleveland Center
07:37PM 39.8547 -80.5661 20° North 395 455 37,000  Level Cleveland Center
07:38PM 39.9550 -80.4994 27° Northeast 406 467 37,000  Level Cleveland Center
07:39PM 40.0592 -80.4431 23° Northeast 404 465 37,000 -836 Level Cleveland Center
07:40PM 40.1836 -80.3861 19° North 396 456 35,300 -984 Descending Cleveland Center
07:41PM 40.2853 -80.3394 19° North 390 449 35,000 -443 Descending Cleveland Center
07:42PM 40.3925 -80.2903 19° North 390 449 34,400 -1,869 Descending Cleveland Center
07:44PM 40.4942 -80.2414 20° North 390 449 31,200 -1,672 Descending Cleveland Center
07:45PM 40.5964 -80.1928 20° North 389 448 31,000 -98 Descending Cleveland Center
07:46PM 40.6944 -80.1464 20° North 380 437 31,000 -492 Level Cleveland Center
07:47PM 40.7919 -80.1008 19° North 375 432 30,000 -984 Descending Cleveland Center
07:48PM 40.8953 -80.0514 20° North 376 433 29,000 -984 Descending Cleveland Center
07:49PM 40.9947 -80.0239 12° North 364 419 28,000 -934 Descending Cleveland Center
07:50PM 41.0961 -80.0019 North 373 429 27,100 -885 Descending Cleveland Center
07:51PM 41.1894 -79.9531 22° Northeast 382 440 26,200 -934 Descending Cleveland Center
07:52PM 41.2883 -79.9025 21° North 382 440 25,200 -934 Descending Cleveland Center
07:53PM 41.3875 -79.8511 21° North 382 440 24,300 -590 Descending Cleveland Center
07:54PM 41.5050 -79.7906 21° North 382 440 24,000 -148 Descending Cleveland Center
07:55PM 41.6014 -79.7400 21° North 378 435 24,000  Level Cleveland Center
07:56PM 41.6875 -79.6964 21° North 377 434 24,000  Level Cleveland Center
07:57PM 41.8056 -79.6342 21° North 384 442 24,000  Level Cleveland Center
07:58PM 41.9011 -79.5856 21° North 386 444 24,000 -148 Level Cleveland Center
07:59PM 42.0058 -79.5314 21° North 402 463 23,700 -1,403 Descending Cleveland Center
08:00PM 42.1094 -79.4756 22° Northeast 404 465 21,100 -2,516 Descending Cleveland Center
08:01PM 42.2108 -79.4236 21° North 386 444 18,500 -2,459 Descending Cleveland Center
08:02PM 42.3022 -79.3739 22° Northeast 370 426 16,100 -2,656 Descending Cleveland Center
08:03PM 42.4122 -79.3158 21° North 362 417 13,100 -2,459 Descending Cleveland Center
08:04PM 42.4869 -79.2761 21° North 349 402 11,100 -1,623 Descending Cleveland Center
08:05PM 42.5686 -79.2050 33° Northeast 295 339 9,800 -1,475 Descending Cleveland Center
08:06PM 42.6297 -79.1297 42° Northeast 286 329 8,100 -1,426 Descending Cleveland Center
08:07PM 42.6817 -79.0653 42° Northeast 266 306 6,900 -1,230 Descending Cleveland Center
08:08PM 42.7306 -79.0033 43° Northeast 236 272 5,600 -1,475 Descending Cleveland Center
08:09PM 42.7733 -78.9489 43° Northeast 207 238 3,900 -1,377 Descending Cleveland Center
08:10PM 42.8086 -78.9011 45° Northeast 193 222 2,800 -780 Descending Cleveland Center
08:11PM 42.8431 -78.8569 43° Northeast 171 197 2,300 -293 Descending Cleveland Center
08:12PM 42.8747 -78.8158 44° Northeast 158 182 2,200 -295 Descending Cleveland Center
08:13PM 42.9036 -78.7769 45° Northeast 154 177 1,700 -492 Descending Cleveland Center
08:15PM 42.9333 -78.7167 44° Northeast  Level FlightAware Approximate
08:22PM 42.9404 -78.7306 305° West  Level Estimated

Login

Don't have an account? Register now (free) for customized features, flight alerts, and more!